sensor_id;sensor_type;location;lat;lon;timestamp;pressure;altitude;pressure_sealevel;temperature;humidity
62978;BME280;49073;42.352;23.808;2022-08-18T00:00:43;94549.47;;;19.30;67.97
62978;BME280;49073;42.352;23.808;2022-08-18T00:03:44;94556.94;;;19.46;67.75
62978;BME280;49073;42.352;23.808;2022-08-18T00:06:45;94555.97;;;19.32;67.98
62978;BME280;49073;42.352;23.808;2022-08-18T00:09:46;94548.22;;;19.34;67.82
62978;BME280;49073;42.352;23.808;2022-08-18T00:12:47;94549.13;;;19.28;67.27
62978;BME280;49073;42.352;23.808;2022-08-18T00:15:47;94549.63;;;19.23;67.67
62978;BME280;49073;42.352;23.808;2022-08-18T00:18:48;94551.97;;;19.41;67.32
62978;BME280;49073;42.352;23.808;2022-08-18T00:21:49;94555.75;;;19.47;67.07
62978;BME280;49073;42.352;23.808;2022-08-18T00:24:52;94551.25;;;19.60;66.39
62978;BME280;49073;42.352;23.808;2022-08-18T00:27:54;94553.03;;;19.67;66.08
62978;BME280;49073;42.352;23.808;2022-08-18T00:30:54;94551.66;;;19.79;64.95
62978;BME280;49073;42.352;23.808;2022-08-18T00:33:55;94551.13;;;19.88;65.13
62978;BME280;49073;42.352;23.808;2022-08-18T00:36:55;94550.00;;;19.85;65.23
62978;BME280;49073;42.352;23.808;2022-08-18T00:39:56;94553.38;;;19.89;65.58
62978;BME280;49073;42.352;23.808;2022-08-18T00:43:00;94558.25;;;19.78;65.48
62978;BME280;49073;42.352;23.808;2022-08-18T00:46:01;94560.97;;;19.78;65.76
62978;BME280;49073;42.352;23.808;2022-08-18T00:49:02;94557.56;;;19.74;64.69
62978;BME280;49073;42.352;23.808;2022-08-18T00:52:04;94556.38;;;19.75;65.94
62978;BME280;49073;42.352;23.808;2022-08-18T00:55:05;94552.94;;;19.74;65.65
62978;BME280;49073;42.352;23.808;2022-08-18T00:58:11;94551.81;;;19.72;65.80
62978;BME280;49073;42.352;23.808;2022-08-18T01:01:16;94552.56;;;19.72;65.33
62978;BME280;49073;42.352;23.808;2022-08-18T01:04:23;94555.19;;;19.76;65.16
62978;BME280;49073;42.352;23.808;2022-08-18T01:07:39;94550.91;;;19.79;65.75
62978;BME280;49073;42.352;23.808;2022-08-18T01:10:47;94550.22;;;19.74;65.80
62978;BME280;49073;42.352;23.808;2022-08-18T01:13:48;94553.97;;;19.81;65.83
62978;BME280;49073;42.352;23.808;2022-08-18T01:16:50;94552.28;;;19.87;65.69
62978;BME280;49073;42.352;23.808;2022-08-18T01:20:12;94565.97;;;19.80;65.42
62978;BME280;49073;42.352;23.808;2022-08-18T01:23:34;94565.28;;;19.75;65.85
62978;BME280;49073;42.352;23.808;2022-08-18T01:26:37;94557.06;;;19.59;66.53
62978;BME280;49073;42.352;23.808;2022-08-18T01:29:38;94560.38;;;19.46;66.99
62978;BME280;49073;42.352;23.808;2022-08-18T01:32:41;94554.84;;;19.54;66.99
62978;BME280;49073;42.352;23.808;2022-08-18T01:35:44;94557.06;;;19.59;66.90
62978;BME280;49073;42.352;23.808;2022-08-18T01:38:51;94551.03;;;19.51;66.32
62978;BME280;49073;42.352;23.808;2022-08-18T01:41:52;94551.97;;;19.41;66.68
62978;BME280;49073;42.352;23.808;2022-08-18T01:44:52;94544.44;;;19.32;66.52
62978;BME280;49073;42.352;23.808;2022-08-18T01:47:53;94547.78;;;19.16;67.80
62978;BME280;49073;42.352;23.808;2022-08-18T01:50:55;94544.72;;;19.14;67.10
62978;BME280;49073;42.352;23.808;2022-08-18T01:53:56;94537.28;;;18.98;68.16
62978;BME280;49073;42.352;23.808;2022-08-18T01:56:57;94539.38;;;19.10;67.59
62978;BME280;49073;42.352;23.808;2022-08-18T01:59:58;94532.19;;;19.03;67.37
62978;BME280;49073;42.352;23.808;2022-08-18T02:03:00;94536.97;;;18.92;67.72
62978;BME280;49073;42.352;23.808;2022-08-18T02:06:03;94544.88;;;18.79;68.50
62978;BME280;49073;42.352;23.808;2022-08-18T02:09:04;94534.56;;;18.74;68.81
62978;BME280;49073;42.352;23.808;2022-08-18T02:12:06;94537.53;;;18.80;68.44
62978;BME280;49073;42.352;23.808;2022-08-18T02:15:07;94535.75;;;18.45;69.56
62978;BME280;49073;42.352;23.808;2022-08-18T02:18:14;94541.25;;;18.38;70.18
62978;BME280;49073;42.352;23.808;2022-08-18T02:21:18;94546.53;;;18.45;70.31
62978;BME280;49073;42.352;23.808;2022-08-18T02:24:19;94546.31;;;18.60;69.69
62978;BME280;49073;42.352;23.808;2022-08-18T02:27:19;94542.41;;;18.37;70.33
62978;BME280;49073;42.352;23.808;2022-08-18T02:30:21;94548.78;;;18.51;70.02
62978;BME280;49073;42.352;23.808;2022-08-18T02:33:21;94551.41;;;18.54;69.93
62978;BME280;49073;42.352;23.808;2022-08-18T02:36:22;94547.94;;;18.54;70.22
62978;BME280;49073;42.352;23.808;2022-08-18T02:39:22;94549.22;;;18.45;70.22
62978;BME280;49073;42.352;23.808;2022-08-18T02:42:23;94551.94;;;18.45;70.17
62978;BME280;49073;42.352;23.808;2022-08-18T02:45:24;94543.63;;;18.32;70.54
62978;BME280;49073;42.352;23.808;2022-08-18T02:48:25;94546.69;;;18.35;70.40
62978;BME280;49073;42.352;23.808;2022-08-18T02:51:34;94542.81;;;18.36;70.14
62978;BME280;49073;42.352;23.808;2022-08-18T02:54:35;94549.94;;;18.22;71.14
62978;BME280;49073;42.352;23.808;2022-08-18T02:57:40;94547.69;;;18.17;71.33
62978;BME280;49073;42.352;23.808;2022-08-18T03:00:41;94550.56;;;18.02;71.67
62978;BME280;49073;42.352;23.808;2022-08-18T03:03:42;94556.34;;;18.01;72.05
62978;BME280;49073;42.352;23.808;2022-08-18T03:06:43;94555.25;;;17.95;72.21
62978;BME280;49073;42.352;23.808;2022-08-18T03:09:44;94557.53;;;17.96;72.26
62978;BME280;49073;42.352;23.808;2022-08-18T03:12:44;94556.25;;;18.08;71.64
62978;BME280;49073;42.352;23.808;2022-08-18T03:15:46;94561.53;;;17.84;72.92
62978;BME280;49073;42.352;23.808;2022-08-18T03:18:47;94555.63;;;17.97;72.77
62978;BME280;49073;42.352;23.808;2022-08-18T03:21:47;94549.94;;;17.87;73.23
62978;BME280;49073;42.352;23.808;2022-08-18T03:24:48;94544.00;;;18.00;72.26
62978;BME280;49073;42.352;23.808;2022-08-18T03:27:48;94543.59;;;18.05;71.94
62978;BME280;49073;42.352;23.808;2022-08-18T03:30:49;94553.19;;;18.10;72.16
62978;BME280;49073;42.352;23.808;2022-08-18T03:33:51;94544.19;;;18.20;71.86
62978;BME280;49073;42.352;23.808;2022-08-18T03:36:52;94543.03;;;18.17;71.69
62978;BME280;49073;42.352;23.808;2022-08-18T03:39:52;94551.66;;;18.09;71.64
62978;BME280;49073;42.352;23.808;2022-08-18T03:42:53;94557.03;;;18.09;71.84
62978;BME280;49073;42.352;23.808;2022-08-18T03:45:54;94554.00;;;18.07;72.09
62978;BME280;49073;42.352;23.808;2022-08-18T03:48:57;94555.16;;;18.06;72.32
62978;BME280;49073;42.352;23.808;2022-08-18T03:51:58;94561.63;;;18.12;72.62
62978;BME280;49073;42.352;23.808;2022-08-18T03:55:00;94561.56;;;18.15;72.42
62978;BME280;49073;42.352;23.808;2022-08-18T03:58:01;94566.72;;;18.34;71.75
62978;BME280;49073;42.352;23.808;2022-08-18T04:01:03;94569.50;;;18.30;71.44
62978;BME280;49073;42.352;23.808;2022-08-18T04:04:06;94566.56;;;18.17;72.54
62978;BME280;49073;42.352;23.808;2022-08-18T04:07:09;94570.00;;;18.17;72.86
62978;BME280;49073;42.352;23.808;2022-08-18T04:10:10;94577.75;;;18.15;73.07
62978;BME280;49073;42.352;23.808;2022-08-18T04:13:11;94584.28;;;18.18;73.34
62978;BME280;49073;42.352;23.808;2022-08-18T04:16:11;94582.97;;;18.30;73.16
62978;BME280;49073;42.352;23.808;2022-08-18T04:19:12;94596.63;;;18.46;73.04
62978;BME280;49073;42.352;23.808;2022-08-18T04:22:13;94599.06;;;18.37;73.64
62978;BME280;49073;42.352;23.808;2022-08-18T04:25:14;94601.81;;;18.34;74.49
62978;BME280;49073;42.352;23.808;2022-08-18T04:28:15;94594.66;;;18.51;74.24
62978;BME280;49073;42.352;23.808;2022-08-18T04:31:16;94604.66;;;18.50;74.72
62978;BME280;49073;42.352;23.808;2022-08-18T04:34:22;94602.63;;;18.58;74.63
62978;BME280;49073;42.352;23.808;2022-08-18T04:37:23;94590.81;;;18.75;73.78
62978;BME280;49073;42.352;23.808;2022-08-18T04:40:23;94596.47;;;18.85;73.39
62978;BME280;49073;42.352;23.808;2022-08-18T04:43:26;94594.78;;;18.95;73.64
62978;BME280;49073;42.352;23.808;2022-08-18T04:46:28;94596.44;;;19.12;74.50
62978;BME280;49073;42.352;23.808;2022-08-18T04:49:29;94597.00;;;19.27;74.30
62978;BME280;49073;42.352;23.808;2022-08-18T04:52:31;94595.47;;;19.26;73.76
62978;BME280;49073;42.352;23.808;2022-08-18T04:55:52;94591.34;;;19.42;73.62
62978;BME280;49073;42.352;23.808;2022-08-18T05:02:06;94590.13;;;19.67;72.85
62978;BME280;49073;42.352;23.808;2022-08-18T05:05:08;94594.22;;;19.75;71.26
62978;BME280;49073;42.352;23.808;2022-08-18T05:08:08;94594.38;;;19.88;70.66
62978;BME280;49073;42.352;23.808;2022-08-18T07:29:21;94598.41;;;25.69;46.11
62978;BME280;49073;42.352;23.808;2022-08-18T07:32:24;94599.91;;;25.70;48.93
62978;BME280;49073;42.352;23.808;2022-08-18T07:35:34;94596.28;;;25.74;47.08
62978;BME280;49073;42.352;23.808;2022-08-18T07:38:47;94597.19;;;25.89;46.67
62978;BME280;49073;42.352;23.808;2022-08-18T07:42:05;94589.28;;;26.19;45.48
62978;BME280;49073;42.352;23.808;2022-08-18T07:45:11;94593.53;;;26.11;45.47
62978;BME280;49073;42.352;23.808;2022-08-18T07:48:20;94590.81;;;26.11;45.15
62978;BME280;49073;42.352;23.808;2022-08-18T07:52:01;94585.78;;;26.19;45.23
62978;BME280;49073;42.352;23.808;2022-08-18T07:58:46;94590.09;;;26.63;44.14
62978;BME280;49073;42.352;23.808;2022-08-18T08:05:41;94596.44;;;26.69;42.51
62978;BME280;49073;42.352;23.808;2022-08-18T08:12:14;94598.25;;;26.72;42.44
62978;BME280;49073;42.352;23.808;2022-08-18T08:18:39;94598.78;;;26.95;42.39
62978;BME280;49073;42.352;23.808;2022-08-18T08:22:32;94598.16;;;27.00;42.51
62978;BME280;49073;42.352;23.808;2022-08-18T08:28:47;94589.44;;;27.11;41.54
62978;BME280;49073;42.352;23.808;2022-08-18T08:32:12;94591.59;;;27.31;40.80
62978;BME280;49073;42.352;23.808;2022-08-18T08:35:19;94583.03;;;27.38;42.00
62978;BME280;49073;42.352;23.808;2022-08-18T08:38:45;94581.72;;;27.58;41.89
62978;BME280;49073;42.352;23.808;2022-08-18T08:41:54;94594.16;;;27.59;41.18
62978;BME280;49073;42.352;23.808;2022-08-18T08:45:03;94588.53;;;27.63;41.00
62978;BME280;49073;42.352;23.808;2022-08-18T08:48:13;94585.91;;;27.83;40.02
62978;BME280;49073;42.352;23.808;2022-08-18T08:51:43;94587.06;;;27.92;40.86
62978;BME280;49073;42.352;23.808;2022-08-18T08:55:02;94581.41;;;27.95;40.09
62978;BME280;49073;42.352;23.808;2022-08-18T09:23:26;94578.72;;;29.06;37.37
62978;BME280;49073;42.352;23.808;2022-08-18T09:33:02;94567.03;;;29.26;37.41
62978;BME280;49073;42.352;23.808;2022-08-18T09:36:52;94557.56;;;29.27;35.69
62978;BME280;49073;42.352;23.808;2022-08-18T09:40:12;94550.09;;;29.49;35.71
62978;BME280;49073;42.352;23.808;2022-08-18T09:44:00;94557.06;;;29.70;36.23
62978;BME280;49073;42.352;23.808;2022-08-18T09:47:10;94555.59;;;29.75;35.88
62978;BME280;49073;42.352;23.808;2022-08-18T09:53:47;94549.03;;;29.25;34.21
62978;BME280;49073;42.352;23.808;2022-08-18T10:03:11;94530.94;;;29.81;37.09
62978;BME280;49073;42.352;23.808;2022-08-18T10:06:16;94532.88;;;29.74;34.87
62978;BME280;49073;42.352;23.808;2022-08-18T10:09:35;94531.75;;;29.87;34.77
62978;BME280;49073;42.352;23.808;2022-08-18T10:25:39;94530.16;;;30.27;34.77
62978;BME280;49073;42.352;23.808;2022-08-18T10:28:53;94537.72;;;30.65;32.99
62978;BME280;49073;42.352;23.808;2022-08-18T10:34:56;94517.69;;;30.64;33.91
62978;BME280;49073;42.352;23.808;2022-08-18T10:41:59;94526.25;;;30.40;34.30
62978;BME280;49073;42.352;23.808;2022-08-18T10:48:28;94527.41;;;30.59;34.77
62978;BME280;49073;42.352;23.808;2022-08-18T10:58:08;94508.97;;;30.71;33.15
62978;BME280;49073;42.352;23.808;2022-08-18T11:01:27;94505.16;;;30.25;34.89
62978;BME280;49073;42.352;23.808;2022-08-18T11:04:37;94501.72;;;30.68;34.33
62978;BME280;49073;42.352;23.808;2022-08-18T11:07:46;94504.34;;;30.95;33.79
62978;BME280;49073;42.352;23.808;2022-08-18T11:10:48;94500.31;;;30.84;32.74
62978;BME280;49073;42.352;23.808;2022-08-18T11:14:45;94497.81;;;30.86;31.26
62978;BME280;49073;42.352;23.808;2022-08-18T11:17:47;94498.25;;;31.23;32.05
62978;BME280;49073;42.352;23.808;2022-08-18T11:20:51;94497.94;;;31.15;33.91
62978;BME280;49073;42.352;23.808;2022-08-18T11:24:27;94497.56;;;30.84;32.30
62978;BME280;49073;42.352;23.808;2022-08-18T11:27:32;94491.06;;;30.87;32.13
62978;BME280;49073;42.352;23.808;2022-08-18T11:30:40;94504.16;;;31.04;33.38
62978;BME280;49073;42.352;23.808;2022-08-18T11:33:42;94497.91;;;31.09;32.87
62978;BME280;49073;42.352;23.808;2022-08-18T11:36:43;94490.28;;;30.87;32.55
62978;BME280;49073;42.352;23.808;2022-08-18T11:39:47;94495.03;;;30.81;32.84
62978;BME280;49073;42.352;23.808;2022-08-18T11:43:03;94488.31;;;30.87;32.76
62978;BME280;49073;42.352;23.808;2022-08-18T11:46:22;94489.66;;;31.09;32.46
62978;BME280;49073;42.352;23.808;2022-08-18T11:49:31;94489.97;;;31.23;31.53
62978;BME280;49073;42.352;23.808;2022-08-18T11:52:45;94490.25;;;31.30;30.22
62978;BME280;49073;42.352;23.808;2022-08-18T11:56:45;94482.56;;;31.52;30.73
62978;BME280;49073;42.352;23.808;2022-08-18T12:02:31;94469.63;;;31.86;30.41
62978;BME280;49073;42.352;23.808;2022-08-18T12:05:47;94472.66;;;32.17;30.01
62978;BME280;49073;42.352;23.808;2022-08-18T12:12:14;94455.59;;;32.13;30.42
62978;BME280;49073;42.352;23.808;2022-08-18T12:18:19;94448.34;;;32.44;29.19
62978;BME280;49073;42.352;23.808;2022-08-18T12:21:20;94437.81;;;32.48;28.89
62978;BME280;49073;42.352;23.808;2022-08-18T12:24:28;94435.25;;;32.61;30.09
62978;BME280;49073;42.352;23.808;2022-08-18T12:27:30;94432.78;;;32.52;28.95
62978;BME280;49073;42.352;23.808;2022-08-18T12:30:31;94441.25;;;32.65;28.50
62978;BME280;49073;42.352;23.808;2022-08-18T12:33:32;94439.06;;;32.35;28.52
62978;BME280;49073;42.352;23.808;2022-08-18T12:36:34;94432.75;;;32.58;28.46
62978;BME280;49073;42.352;23.808;2022-08-18T12:39:35;94448.28;;;32.61;29.30
62978;BME280;49073;42.352;23.808;2022-08-18T12:42:38;94429.94;;;32.69;28.35
62978;BME280;49073;42.352;23.808;2022-08-18T12:45:39;94433.47;;;32.70;28.43
62978;BME280;49073;42.352;23.808;2022-08-18T12:48:40;94444.47;;;32.87;27.43
62978;BME280;49073;42.352;23.808;2022-08-18T12:51:42;94438.69;;;32.79;29.23
62978;BME280;49073;42.352;23.808;2022-08-18T12:54:43;94428.47;;;32.57;28.15
62978;BME280;49073;42.352;23.808;2022-08-18T12:57:46;94428.53;;;32.17;28.42
62978;BME280;49073;42.352;23.808;2022-08-18T13:00:46;94432.53;;;32.10;30.72
62978;BME280;49073;42.352;23.808;2022-08-18T13:03:47;94434.03;;;32.40;28.03
62978;BME280;49073;42.352;23.808;2022-08-18T13:06:54;94438.03;;;32.50;28.25
62978;BME280;49073;42.352;23.808;2022-08-18T13:09:55;94435.28;;;32.50;28.70
62978;BME280;49073;42.352;23.808;2022-08-18T13:12:55;94435.78;;;32.48;28.74
62978;BME280;49073;42.352;23.808;2022-08-18T13:15:56;94428.00;;;32.53;28.65
62978;BME280;49073;42.352;23.808;2022-08-18T13:18:57;94420.94;;;32.74;29.22
62978;BME280;49073;42.352;23.808;2022-08-18T13:21:57;94414.63;;;32.79;28.12
62978;BME280;49073;42.352;23.808;2022-08-18T13:24:59;94412.59;;;32.91;26.83
62978;BME280;49073;42.352;23.808;2022-08-18T13:27:59;94414.31;;;33.00;28.34
62978;BME280;49073;42.352;23.808;2022-08-18T13:31:01;94420.09;;;32.97;29.13
62978;BME280;49073;42.352;23.808;2022-08-18T13:34:03;94423.38;;;32.95;29.28
62978;BME280;49073;42.352;23.808;2022-08-18T13:37:04;94416.88;;;32.81;27.83
62978;BME280;49073;42.352;23.808;2022-08-18T13:40:07;94407.31;;;32.93;28.80
62978;BME280;49073;42.352;23.808;2022-08-18T13:43:09;94399.81;;;32.83;29.19
62978;BME280;49073;42.352;23.808;2022-08-18T13:46:13;94408.88;;;32.77;28.77
62978;BME280;49073;42.352;23.808;2022-08-18T13:49:16;94409.16;;;32.62;29.06
62978;BME280;49073;42.352;23.808;2022-08-18T13:52:17;94406.69;;;32.53;28.83
62978;BME280;49073;42.352;23.808;2022-08-18T13:55:19;94406.41;;;32.62;29.19
62978;BME280;49073;42.352;23.808;2022-08-18T13:58:20;94413.16;;;32.67;28.61
62978;BME280;49073;42.352;23.808;2022-08-18T14:01:20;94400.66;;;32.60;28.27
62978;BME280;49073;42.352;23.808;2022-08-18T14:04:21;94401.38;;;32.67;28.27
62978;BME280;49073;42.352;23.808;2022-08-18T14:07:22;94408.63;;;32.70;28.23
62978;BME280;49073;42.352;23.808;2022-08-18T14:10:23;94408.38;;;32.73;29.65
62978;BME280;49073;42.352;23.808;2022-08-18T14:13:26;94399.09;;;32.76;28.18
62978;BME280;49073;42.352;23.808;2022-08-18T14:16:31;94398.56;;;32.78;28.87
62978;BME280;49073;42.352;23.808;2022-08-18T14:19:32;94397.84;;;32.66;28.03
62978;BME280;49073;42.352;23.808;2022-08-18T14:22:54;94393.81;;;32.73;26.93
62978;BME280;49073;42.352;23.808;2022-08-18T14:26:14;94388.84;;;32.60;26.48
62978;BME280;49073;42.352;23.808;2022-08-18T14:29:33;94390.38;;;32.49;28.89
62978;BME280;49073;42.352;23.808;2022-08-18T14:32:34;94405.47;;;32.43;27.47
62978;BME280;49073;42.352;23.808;2022-08-18T14:35:36;94392.16;;;32.41;27.66
62978;BME280;49073;42.352;23.808;2022-08-18T14:38:37;94390.91;;;32.42;27.63
62978;BME280;49073;42.352;23.808;2022-08-18T14:41:39;94391.16;;;32.39;27.41
62978;BME280;49073;42.352;23.808;2022-08-18T14:44:40;94381.38;;;32.38;28.06
62978;BME280;49073;42.352;23.808;2022-08-18T14:47:40;94380.34;;;32.52;27.55
62978;BME280;49073;42.352;23.808;2022-08-18T14:50:41;94383.41;;;32.43;27.43
62978;BME280;49073;42.352;23.808;2022-08-18T14:53:42;94378.63;;;32.38;27.89
62978;BME280;49073;42.352;23.808;2022-08-18T14:56:43;94383.41;;;32.31;27.73
62978;BME280;49073;42.352;23.808;2022-08-18T14:59:44;94375.41;;;32.16;27.01
62978;BME280;49073;42.352;23.808;2022-08-18T15:02:46;94381.16;;;32.18;27.72
62978;BME280;49073;42.352;23.808;2022-08-18T15:05:48;94382.69;;;32.19;28.26
62978;BME280;49073;42.352;23.808;2022-08-18T15:08:49;94377.44;;;32.04;28.30
62978;BME280;49073;42.352;23.808;2022-08-18T15:11:49;94372.91;;;32.18;28.24
62978;BME280;49073;42.352;23.808;2022-08-18T15:14:50;94374.91;;;32.12;28.73
62978;BME280;49073;42.352;23.808;2022-08-18T15:17:51;94377.19;;;31.91;29.52
62978;BME280;49073;42.352;23.808;2022-08-18T15:20:52;94375.44;;;31.82;29.53
62978;BME280;49073;42.352;23.808;2022-08-18T15:24:12;94369.41;;;31.89;28.01
62978;BME280;49073;42.352;23.808;2022-08-18T15:27:35;94376.69;;;31.98;29.42
62978;BME280;49073;42.352;23.808;2022-08-18T15:30:41;94371.41;;;31.77;28.79
62978;BME280;49073;42.352;23.808;2022-08-18T15:33:42;94373.16;;;31.81;27.87
62978;BME280;49073;42.352;23.808;2022-08-18T15:36:43;94370.41;;;31.69;28.59
62978;BME280;49073;42.352;23.808;2022-08-18T15:39:44;94376.19;;;31.54;28.84
62978;BME280;49073;42.352;23.808;2022-08-18T15:42:50;94369.16;;;31.47;29.86
62978;BME280;49073;42.352;23.808;2022-08-18T15:45:51;94381.91;;;31.51;29.33
62978;BME280;49073;42.352;23.808;2022-08-18T15:48:54;94377.16;;;31.51;29.45
62978;BME280;49073;42.352;23.808;2022-08-18T15:51:54;94374.91;;;31.38;29.82
62978;BME280;49073;42.352;23.808;2022-08-18T15:55:00;94384.41;;;31.26;30.10
62978;BME280;49073;42.352;23.808;2022-08-18T15:58:01;94373.13;;;31.24;29.34
62978;BME280;49073;42.352;23.808;2022-08-18T16:01:08;94375.13;;;31.23;29.47
62978;BME280;49073;42.352;23.808;2022-08-18T16:04:09;94368.84;;;31.17;29.82
62978;BME280;49073;42.352;23.808;2022-08-18T16:07:09;94368.81;;;31.11;31.45
62978;BME280;49073;42.352;23.808;2022-08-18T16:10:11;94375.81;;;31.12;32.58
62978;BME280;49073;42.352;23.808;2022-08-18T16:13:11;94379.78;;;31.00;31.59
62978;BME280;49073;42.352;23.808;2022-08-18T16:16:21;94379.78;;;31.00;32.62
62978;BME280;49073;42.352;23.808;2022-08-18T16:19:22;94377.25;;;30.85;31.07
62978;BME280;49073;42.352;23.808;2022-08-18T16:22:23;94375.72;;;30.78;33.01
62978;BME280;49073;42.352;23.808;2022-08-18T16:25:24;94379.69;;;30.66;34.13
62978;BME280;49073;42.352;23.808;2022-08-18T16:28:24;94381.84;;;30.56;35.49
62978;BME280;49073;42.352;23.808;2022-08-18T16:31:25;94382.53;;;30.39;36.21
62978;BME280;49073;42.352;23.808;2022-08-18T16:34:27;94374.44;;;30.24;36.00
62978;BME280;49073;42.352;23.808;2022-08-18T16:37:27;94381.81;;;30.01;36.98
62978;BME280;49073;42.352;23.808;2022-08-18T16:40:29;94368.69;;;29.90;35.37
62978;BME280;49073;42.352;23.808;2022-08-18T16:43:29;94380.41;;;29.85;36.66
62978;BME280;49073;42.352;23.808;2022-08-18T16:46:30;94375.72;;;29.59;37.32
62978;BME280;49073;42.352;23.808;2022-08-18T16:49:32;94381.22;;;29.38;35.81
62978;BME280;49073;42.352;23.808;2022-08-18T16:52:33;94388.63;;;29.26;38.09
62978;BME280;49073;42.352;23.808;2022-08-18T16:55:35;94374.94;;;29.06;37.79
62978;BME280;49073;42.352;23.808;2022-08-18T16:58:36;94374.31;;;28.75;39.26
62978;BME280;49073;42.352;23.808;2022-08-18T17:01:55;94376.38;;;28.59;39.19
62978;BME280;49073;42.352;23.808;2022-08-18T17:05:14;94384.88;;;28.41;39.19
62978;BME280;49073;42.352;23.808;2022-08-18T17:08:15;94385.47;;;28.30;38.13
62978;BME280;49073;42.352;23.808;2022-08-18T17:11:17;94385.00;;;28.31;37.32
62978;BME280;49073;42.352;23.808;2022-08-18T17:14:24;94384.81;;;28.35;36.83
62978;BME280;49073;42.352;23.808;2022-08-18T17:17:25;94394.66;;;28.27;37.27
62978;BME280;49073;42.352;23.808;2022-08-18T17:20:26;94390.53;;;28.16;39.22
62978;BME280;49073;42.352;23.808;2022-08-18T17:23:26;94391.56;;;28.04;39.83
62978;BME280;49073;42.352;23.808;2022-08-18T17:33:17;94395.84;;;27.60;40.96
62978;BME280;49073;42.352;23.808;2022-08-18T17:36:50;94400.38;;;27.33;41.95
62978;BME280;49073;42.352;23.808;2022-08-18T17:40:14;94401.88;;;27.34;41.30
62978;BME280;49073;42.352;23.808;2022-08-18T17:43:29;94405.00;;;27.42;39.53
62978;BME280;49073;42.352;23.808;2022-08-18T17:46:37;94410.88;;;27.50;37.50
62978;BME280;49073;42.352;23.808;2022-08-18T17:49:42;94405.88;;;27.63;36.26
62978;BME280;49073;42.352;23.808;2022-08-18T17:53:04;94408.03;;;27.74;36.07
62978;BME280;49073;42.352;23.808;2022-08-18T17:59:09;94429.84;;;27.83;34.74
62978;BME280;49073;42.352;23.808;2022-08-18T18:02:17;94434.94;;;27.91;34.06
62978;BME280;49073;42.352;23.808;2022-08-18T18:05:20;94441.06;;;27.85;33.91
62978;BME280;49073;42.352;23.808;2022-08-18T18:08:46;94449.28;;;27.85;33.45
62978;BME280;49073;42.352;23.808;2022-08-18T18:11:46;94450.22;;;27.82;33.59
62978;BME280;49073;42.352;23.808;2022-08-18T18:14:47;94456.66;;;27.79;33.79
62978;BME280;49073;42.352;23.808;2022-08-18T18:17:48;94463.75;;;27.71;34.49
62978;BME280;49073;42.352;23.808;2022-08-18T18:20:57;94472.63;;;27.66;34.14
62978;BME280;49073;42.352;23.808;2022-08-18T18:27:29;94481.88;;;27.29;37.30
62978;BME280;49073;42.352;23.808;2022-08-18T18:30:31;94489.22;;;27.23;38.28
62978;BME280;49073;42.352;23.808;2022-08-18T18:33:34;94486.06;;;27.15;38.23
62978;BME280;49073;42.352;23.808;2022-08-18T18:36:44;94496.09;;;26.94;38.93
62978;BME280;49073;42.352;23.808;2022-08-18T18:39:54;94496.56;;;26.58;39.72
62978;BME280;49073;42.352;23.808;2022-08-18T18:42:57;94505.31;;;26.38;41.46
62978;BME280;49073;42.352;23.808;2022-08-18T18:49:26;94506.00;;;26.05;41.57
62978;BME280;49073;42.352;23.808;2022-08-18T18:52:49;94508.31;;;25.79;43.79
62978;BME280;49073;42.352;23.808;2022-08-18T19:02:21;94519.28;;;25.51;43.83
62978;BME280;49073;42.352;23.808;2022-08-18T19:05:56;94513.50;;;25.39;44.58
62978;BME280;49073;42.352;23.808;2022-08-18T19:09:18;94515.28;;;25.33;45.17
62978;BME280;49073;42.352;23.808;2022-08-18T19:12:36;94516.81;;;25.25;45.20
62978;BME280;49073;42.352;23.808;2022-08-18T19:15:44;94514.84;;;25.07;46.31
62978;BME280;49073;42.352;23.808;2022-08-18T19:19:02;94521.81;;;25.17;46.07
62978;BME280;49073;42.352;23.808;2022-08-18T19:22:30;94524.25;;;25.24;46.67
62978;BME280;49073;42.352;23.808;2022-08-18T19:25:33;94521.66;;;25.11;47.02
62978;BME280;49073;42.352;23.808;2022-08-18T19:28:47;94519.81;;;24.99;47.17
62978;BME280;49073;42.352;23.808;2022-08-18T19:31:57;94511.97;;;24.60;48.20
62978;BME280;49073;42.352;23.808;2022-08-18T19:35:00;94519.88;;;24.67;48.42
62978;BME280;49073;42.352;23.808;2022-08-18T19:38:03;94521.66;;;24.61;48.82
62978;BME280;49073;42.352;23.808;2022-08-18T19:41:12;94514.81;;;24.47;49.00
62978;BME280;49073;42.352;23.808;2022-08-18T19:48:39;94519.50;;;24.15;49.78
62978;BME280;49073;42.352;23.808;2022-08-18T19:51:33;94522.38;;;24.11;50.38
62978;BME280;49073;42.352;23.808;2022-08-18T20:02:06;94518.16;;;23.97;51.37
62978;BME280;49073;42.352;23.808;2022-08-18T20:05:08;94523.69;;;23.85;51.54
62978;BME280;49073;42.352;23.808;2022-08-18T20:15:08;94521.06;;;23.36;52.88
62978;BME280;49073;42.352;23.808;2022-08-18T20:18:21;94522.09;;;23.52;52.63
62978;BME280;49073;42.352;23.808;2022-08-18T20:21:31;94520.16;;;23.52;52.38
62978;BME280;49073;42.352;23.808;2022-08-18T20:24:52;94522.94;;;23.27;53.78
62978;BME280;49073;42.352;23.808;2022-08-18T20:31:10;94520.75;;;23.21;53.66
62978;BME280;49073;42.352;23.808;2022-08-18T20:34:12;94533.78;;;23.04;53.78
62978;BME280;49073;42.352;23.808;2022-08-18T20:37:21;94534.09;;;23.06;53.99
62978;BME280;49073;42.352;23.808;2022-08-18T20:40:42;94533.88;;;23.01;53.97
62978;BME280;49073;42.352;23.808;2022-08-18T20:43:45;94524.03;;;22.81;54.48
62978;BME280;49073;42.352;23.808;2022-08-18T20:56:54;94518.91;;;22.44;56.10
62978;BME280;49073;42.352;23.808;2022-08-18T21:00:13;94522.06;;;22.43;56.15
62978;BME280;49073;42.352;23.808;2022-08-18T21:03:16;94525.31;;;22.24;56.85
62978;BME280;49073;42.352;23.808;2022-08-18T21:06:21;94525.91;;;22.45;56.49